KFMY/FMY METAR and TAF weather

Enter ICAO airport designator
Station Type Date Time Source
KFMY METAR 2019/05/21 20:53 UTC NOAA

KFMY 212053Z 27011KT 10SM FEW050 BKN060 29/22 A2990 RMK AO2 SLP127 T02940217 56013


Station Type Date Time Source
KFMY Decoded METAR 2019/05/21 20:53 UTC NOAA

FORT MYERS PAGE FIELD, FL, United States (KFMY) 26-35N 081-52W 4M
May 21, 2019 - 04:53 PM EDT / 2019.05.21 2053 UTC
Wind: from the W (270 degrees) at 13 MPH (11 KT):0
Visibility: 10 mile(s):0
Sky conditions: mostly cloudy
Temperature: 84.9 F (29.4 C)
Dew Point: 71.1 F (21.7 C)
Relative Humidity: 63%
Pressure (altimeter): 29.9 in. Hg (1012 hPa)
Pressure tendency: 0.04 inches (1.3 hPa) lower than three hours ago
ob: KFMY 212053Z 27011KT 10SM FEW050 BKN060 29/22 A2990 RMK AO2 SLP127 T02940217 56013
cycle: 21

Station Type Date Time Source
KFMY TAF 2019/05/21 18:22 UTC NOAA

TAF KFMY 211720Z 2118/2218 24006KT P6SM SCT050
FM212100 26008KT P6SM VCTS SCT060CB
FM220200 12003KT P6SM SKC
FM221500 11005KT P6SM SCT030

Example: see airport list